LFPTLFOP

Guest
Details From LFPT - Pontoise Cormeilles En Vexin
To LFOP - Rouen Vallee de la Seine
Flight Number -
Tags generated
Created
Modified
Stats Distance 38 nm / 70 km
Max Altitude 3,500 ft / 1,067 m
Waypoints 3
Social Downloads 0
Likes 0
Share VATSIM

Download

Looking for another format? Having issues loading an existing format? Contact us
Advertisement - Login to hide

Notes

Basic altitude profile: - Ascent Rate: 2500ft/min - Ascent Speed: 80kts - Cruise Altitude: 2500ft - Cruise Speed: 140kts - Descent Rate: 1500ft/min - Descent Speed: 250kts Options: - Use NATs: yes - Use PACOTS: yes - Use low airways: yes - Use high airways: yes

Route

LFPT PODEM LFOP

ID Type Via Altitude Latitude Longitude Leg Dist Tot Dist Heading (true) Name
O LFPT APT - 0 ft / 0 m 49.09579˚ 2.03558˚ - 0 nm - Pontoise Cormeilles En Vexin
PODEM FIX - 3,500 ft / 1,067 m 49.26139˚ 1.55306˚ 21 nm 21 nm 298° / 298° -
O LFOP APT - 0 ft / 0 m 49.38521˚ 1.17619˚ 16 nm 37 nm 297° / 297° Rouen Vallee de la Seine

Altitude Profile

Advertisement - Login to hide

LFPT

Details ICAO LFPT (POX)
Name Pontoise Cormeilles En Vexin
Region France
Timezone Europe/Paris (UTC+1.0)
Stats Elevation 325 ft / 99 m (AMSL)
Location 49.095793° 2.035583°
Runways 2
Magnetic Variation 0.475° E

METAR

LFPT 180300Z AUTO 29009KT 4900 -RA BR BKN005 OVC009 09/08 Q1020

Decode

TAF

Not found

Departure Runways

ID Width Length Bearing (true) Bearing (mag) Surface Threshold Offset Overrun Length
05 164 ft / 50 m 5,535 ft / 1,687 m 44.55° 44.07° Asphalt 0 ft / 0 m 0 ft / 0 m
12 164 ft / 50 m 5,403 ft / 1,647 m 118.18° 117.70° Asphalt 197 ft / 60 m 0 ft / 0 m
23 164 ft / 50 m 5,535 ft / 1,687 m 224.57° 224.09° Asphalt 558 ft / 170 m 0 ft / 0 m
30 164 ft / 50 m 5,403 ft / 1,647 m 298.20° 297.72° Asphalt 584 ft / 178 m 0 ft / 0 m

LFOP

Details ICAO LFOP (URO)
Name Rouen Vallee de la Seine
Region France
Timezone Europe/Paris (UTC+1.0)
Stats Elevation 512 ft / 156 m (AMSL)
Location 49.385211° 1.176192°
Runways 1
Magnetic Variation 0.185° E

METAR

LFOP 180300Z AUTO 32009KT 9999 -DZ BKN002 OVC007 09/09 Q1021

Decode

TAF

TAF TAF LFOP 172104Z 1721/1818 CNL

Decode

Destination Runways

ID Width Length Bearing (true) Bearing (mag) Surface Threshold Offset Overrun Length
04 148 ft / 45 m 5,577 ft / 1,700 m 41.28° 41.10° Asphalt 0 ft / 0 m 0 ft / 0 m
22 148 ft / 45 m 5,577 ft / 1,700 m 221.29° 221.11° Asphalt 0 ft / 0 m 0 ft / 0 m

Approach Navaids

Runway Type Ident Frequency Range Bearing (true) Bearing (mag) Slope Elevation
22 Localiser RN 110.50 MHz 18 nm / 33 km 221.27° 221.09° - 512 ft / 156 m (AMSL)
22 Glidescope RN 110.50 MHz 10 nm / 19 km 221.28° 221.10° 3.00° 512 ft / 156 m (AMSL)
22 DME RN 110.50 MHz 18 nm / 33 km - - - 571 ft / 174 m (AMSL)

Popular Alternatives